Portada
METAR-TAF:

METAR-TAF

Aeroports :

Nevis, Antigua i Barbuda

latitud: 17-12N, longitud: 062-35W, altitud: 17 m

Observació

L'informe es va fer fa 2 hores i 40 minuts, a les 21:00 UTC
Vent 9 kt del Est/Sud-Est
Temperatura 29°C
Humitat 70%
Pressió 1014 hPa
Visibilitat 10 km o més
Escasses núvols a una alçada de 2400 ft

METAR: TKPN 272100Z 11009KT 9999 FEW024 29/23 Q1014

Hora: 19:40 (23:40 UTC)

Pronòstic

L'informe es va fer fa 6 hores i 40 minuts, a les 17:00 UTC
Pronòstic vàlid del 27 a les 18 UTC al 28 a les 18 UTC
Vent 8 kt del Est/Sud-Est
Visibilitat 10 km o més
Núvols disperses a una alçada de 2000 ft

TAF: TKPN 271700Z 2718/2818 12008KT 9999 SCT020

Observacions i pronòstics meteorològics de més de 4000 aeroports (METAR i TAF).

Les estacions disponibles són els punts grocs i vermells al mapa.

Posi el ratolí al punt desitjat per veure el nom de l'estació.

Feu clic per veure les observacions i els pronòstics meteorològics.

Per canviar el mapa: feu clic els botons verds amb una creu de color negre per apropar; al botó verd amb un guió per allunyar la imatge; o en les fletxes verdes per a mapes adjacents.


METAR-TAF: